createdAt,value
2024-01-05T00:00:22.000Z,54.11
2024-01-05T00:02:24.441Z,54.13
2024-01-05T00:04:27.032Z,53.93
2024-01-05T00:06:30.148Z,54.35
2024-01-05T00:08:32.566Z,53.97
2024-01-05T00:10:34.972Z,54.32
2024-01-05T00:12:37.777Z,54.36
2024-01-05T00:14:40.384Z,54.36
2024-01-05T00:16:42.954Z,54.48
2024-01-05T00:18:45.675Z,54.61
2024-01-05T00:20:48.116Z,54.61
2024-01-05T00:22:50.854Z,54.42
2024-01-05T00:24:53.209Z,54.66
2024-01-05T00:26:55.683Z,54.09
2024-01-05T00:28:58.056Z,54.14
2024-01-05T00:31:00.807Z,54.27
2024-01-05T00:33:03.573Z,54.35
2024-01-05T00:35:06.600Z,54.49
2024-01-05T00:37:09.159Z,54.08
2024-01-05T00:39:11.691Z,54.40
2024-01-05T00:41:14.356Z,54.19
2024-01-05T00:43:16.715Z,54.36
2024-01-05T00:45:19.162Z,54.29
2024-01-05T00:47:21.520Z,54.41
2024-01-05T00:49:24.034Z,53.85
2024-01-05T00:51:26.403Z,54.11
2024-01-05T00:53:28.874Z,54.22
2024-01-05T00:55:31.228Z,54.41
2024-01-05T00:57:33.667Z,54.31
2024-01-05T00:59:36.050Z,54.20
2024-01-05T01:01:38.521Z,54.04
2024-01-05T01:03:40.821Z,53.99
2024-01-05T01:05:43.526Z,53.99
2024-01-05T01:07:46.051Z,53.72
2024-01-05T01:09:48.358Z,53.47
2024-01-05T01:11:52.007Z,53.73
2024-01-05T01:13:54.521Z,53.88
2024-01-05T01:15:56.941Z,53.66
2024-01-05T01:17:59.479Z,53.86
2024-01-05T01:20:02.030Z,54.07
2024-01-05T01:22:04.989Z,54.07
2024-01-05T01:24:07.365Z,54.15
2024-01-05T01:26:10.080Z,54.15
2024-01-05T01:28:12.475Z,54.46
2024-01-05T01:30:15.312Z,54.44
2024-01-05T01:32:17.860Z,54.56
2024-01-05T01:34:20.238Z,54.46
2024-01-05T01:36:22.582Z,54.30
2024-01-05T01:38:25.216Z,54.71
2024-01-05T01:40:28.372Z,54.65
2024-01-05T01:42:30.772Z,54.81
2024-01-05T01:44:33.193Z,55.10
2024-01-05T01:46:37.608Z,54.64
2024-01-05T01:48:42.135Z,54.44
2024-01-05T01:50:44.757Z,55.00
2024-01-05T01:52:49.102Z,55.00
2024-01-05T01:54:51.793Z,54.92
2024-01-05T01:56:54.500Z,54.84
2024-01-05T01:58:57.044Z,54.72
2024-01-05T02:00:59.593Z,54.95
2024-01-05T02:03:05.073Z,54.96
2024-01-05T02:05:08.106Z,54.70
2024-01-05T02:07:11.755Z,55.20
2024-01-05T02:09:14.406Z,55.20
2024-01-05T02:11:17.602Z,54.84
2024-01-05T02:13:20.202Z,55.16
2024-01-05T02:15:22.737Z,55.11
2024-01-05T02:17:32.604Z,55.31
2024-01-05T02:19:35.185Z,55.05
2024-01-05T02:21:41.925Z,55.58
2024-01-05T02:23:44.720Z,55.45
2024-01-05T02:25:46.992Z,55.47
2024-01-05T02:27:49.327Z,55.44
2024-01-05T02:29:51.685Z,55.06
2024-01-05T02:31:54.131Z,55.20
2024-01-05T02:33:56.546Z,55.30
2024-01-05T02:35:59.022Z,55.22
2024-01-05T02:38:02.491Z,55.26
2024-01-05T02:40:05.641Z,55.50
2024-01-05T02:42:08.177Z,55.06
2024-01-05T02:44:10.514Z,55.01
2024-01-05T02:46:13.050Z,54.99
2024-01-05T02:48:15.474Z,54.92
2024-01-05T02:50:19.236Z,55.00
2024-01-05T02:52:21.600Z,55.23
2024-01-05T02:54:24.019Z,54.84
2024-01-05T02:56:26.431Z,54.96
2024-01-05T02:58:28.870Z,55.00
2024-01-05T03:00:31.341Z,55.13
2024-01-05T03:02:34.173Z,54.71
2024-01-05T03:04:36.560Z,54.81
2024-01-05T03:06:39.074Z,54.81
2024-01-05T03:08:41.446Z,54.79
2024-01-05T03:10:43.785Z,55.10
2024-01-05T03:12:46.163Z,54.71
2024-01-05T03:14:48.560Z,54.71
2024-01-05T03:16:50.956Z,54.80
2024-01-05T03:18:53.767Z,54.97
2024-01-05T03:20:56.532Z,55.03
2024-01-05T03:22:58.916Z,54.82
2024-01-05T03:25:01.196Z,55.28
2024-01-05T03:27:05.868Z,55.18
2024-01-05T03:29:08.373Z,55.47
2024-01-05T03:31:16.607Z,55.72
2024-01-05T03:33:21.727Z,55.30
2024-01-05T03:35:24.246Z,55.20
2024-01-05T03:37:26.709Z,55.06
2024-01-05T03:39:29.276Z,55.08
2024-01-05T03:41:31.743Z,55.44
2024-01-05T03:43:34.174Z,55.04
2024-01-05T03:45:36.616Z,55.02
2024-01-05T03:47:39.190Z,54.76
2024-01-05T03:49:41.747Z,55.22
2024-01-05T03:51:44.535Z,54.85
2024-01-05T03:53:47.079Z,55.02
2024-01-05T03:55:49.326Z,54.77
2024-01-05T03:57:51.716Z,55.04
2024-01-05T03:59:54.264Z,54.80
2024-01-05T04:01:56.672Z,54.60
2024-01-05T04:03:59.088Z,55.17
2024-01-05T04:06:01.535Z,54.96
2024-01-05T04:08:04.776Z,54.71
2024-01-05T04:10:08.527Z,54.64
2024-01-05T04:12:11.187Z,54.92
2024-01-05T04:14:13.634Z,55.13
2024-01-05T04:16:16.088Z,55.03
2024-01-05T04:18:18.491Z,55.20
2024-01-05T04:20:21.078Z,55.20
2024-01-05T04:22:23.507Z,55.34
2024-01-05T04:24:25.990Z,55.62
2024-01-05T04:26:28.274Z,55.50
2024-01-05T04:28:30.892Z,55.90
2024-01-05T04:30:33.339Z,55.89
2024-01-05T04:32:36.344Z,56.06
2024-01-05T04:34:38.954Z,56.10
2024-01-05T04:36:41.612Z,55.89
2024-01-05T04:38:44.704Z,55.64
2024-01-05T04:40:47.419Z,55.67
2024-01-05T04:42:49.734Z,55.58
2024-01-05T04:44:52.232Z,55.72
2024-01-05T04:46:54.660Z,55.74
2024-01-05T04:48:57.219Z,55.47
2024-01-05T04:50:59.722Z,55.47
2024-01-05T04:53:02.050Z,55.64
2024-01-05T04:55:05.836Z,55.81
2024-01-05T04:57:08.481Z,55.76
2024-01-05T04:59:10.930Z,55.79
2024-01-05T05:01:13.263Z,55.70
2024-01-05T05:03:15.753Z,55.59
2024-01-05T05:05:18.221Z,55.59
2024-01-05T05:07:20.681Z,55.47
2024-01-05T05:09:23.059Z,55.74
2024-01-05T05:11:25.441Z,55.71
2024-01-05T05:13:27.837Z,56.01
2024-01-05T05:15:30.202Z,55.92
2024-01-05T05:17:32.622Z,56.09
2024-01-05T05:19:35.601Z,56.08
2024-01-05T05:21:38.330Z,55.98
2024-01-05T05:23:40.921Z,55.92
2024-01-05T05:25:43.411Z,56.16
2024-01-05T05:27:45.772Z,56.19
2024-01-05T05:29:51.364Z,56.46
2024-01-05T05:31:53.762Z,56.05
2024-01-05T05:33:56.516Z,56.46
2024-01-05T05:35:59.166Z,56.83
2024-01-05T05:38:04.588Z,56.78
2024-01-05T05:40:07.575Z,56.83
2024-01-05T05:42:10.090Z,56.37
2024-01-05T05:44:12.330Z,56.34
2024-01-05T05:46:14.694Z,56.50
2024-01-05T05:48:17.476Z,56.69
2024-01-05T05:50:19.922Z,56.48
2024-01-05T05:52:22.341Z,56.82
2024-01-05T05:54:24.876Z,56.64
2024-01-05T05:56:27.304Z,56.74
2024-01-05T05:58:29.675Z,56.84
2024-01-05T06:00:32.966Z,56.61
2024-01-05T06:02:35.512Z,56.50
2024-01-05T06:04:38.033Z,56.67
2024-01-05T06:06:40.393Z,57.21
2024-01-05T06:08:42.806Z,56.71
2024-01-05T06:10:45.262Z,56.84
2024-01-05T06:12:47.949Z,56.62
2024-01-05T06:14:50.364Z,56.47
2024-01-05T06:16:52.782Z,56.31
2024-01-05T06:18:55.308Z,56.11
2024-01-05T06:20:57.810Z,56.22
2024-01-05T06:23:00.409Z,56.17
2024-01-05T06:25:02.998Z,56.47
2024-01-05T06:27:05.677Z,56.54
2024-01-05T06:29:08.166Z,56.56
2024-01-05T06:31:10.716Z,56.59
2024-01-05T06:33:13.617Z,56.72
2024-01-05T06:35:16.049Z,56.65
2024-01-05T06:37:23.857Z,56.71
2024-01-05T06:39:26.272Z,56.52
2024-01-05T06:41:28.674Z,56.96
2024-01-05T06:43:31.038Z,57.06
2024-01-05T06:45:33.382Z,57.00
2024-01-05T06:47:35.633Z,56.92
2024-01-05T06:49:38.108Z,56.78
2024-01-05T06:51:41.775Z,56.62
2024-01-05T06:53:44.392Z,56.75
2024-01-05T06:55:46.787Z,56.90
2024-01-05T06:57:49.482Z,57.17
2024-01-05T06:59:51.746Z,56.61
2024-01-05T07:01:54.185Z,56.75
2024-01-05T07:03:56.584Z,56.64
2024-01-05T07:05:58.964Z,56.79
2024-01-05T07:08:01.361Z,56.21
2024-01-05T07:10:04.074Z,56.51
2024-01-05T07:12:06.622Z,56.23
2024-01-05T07:14:08.896Z,56.42
2024-01-05T07:16:23.324Z,56.63
2024-01-05T07:18:25.658Z,57.36
2024-01-05T07:20:28.094Z,56.85
2024-01-05T07:22:30.789Z,56.92
2024-01-05T07:24:35.155Z,56.63
2024-01-05T07:26:37.510Z,56.96
2024-01-05T07:28:40.027Z,57.17
2024-01-05T07:30:42.500Z,57.50
2024-01-05T07:32:46.485Z,57.36
2024-01-05T07:34:48.837Z,57.87
2024-01-05T07:36:51.838Z,57.30
2024-01-05T07:38:54.275Z,57.24
2024-01-05T07:40:56.534Z,56.97
2024-01-05T07:42:59.026Z,57.34
2024-01-05T07:45:01.763Z,57.06
2024-01-05T07:47:04.561Z,56.59
2024-01-05T07:49:06.932Z,56.25
2024-01-05T07:51:10.565Z,56.74
2024-01-05T07:53:14.242Z,56.14
2024-01-05T07:55:16.650Z,56.33
2024-01-05T07:57:18.977Z,56.10
2024-01-05T07:59:21.271Z,55.44
2024-01-05T08:01:23.654Z,55.50
2024-01-05T08:03:26.090Z,54.90
2024-01-05T08:05:28.604Z,55.51
2024-01-05T08:07:30.962Z,54.87
2024-01-05T08:09:33.767Z,54.79
2024-01-05T08:11:36.080Z,54.69
2024-01-05T08:13:38.466Z,54.11
2024-01-05T08:15:40.770Z,54.05
2024-01-05T08:17:43.177Z,53.99
2024-01-05T08:19:45.773Z,54.05
2024-01-05T08:21:48.790Z,53.75
2024-01-05T08:23:51.629Z,53.67
2024-01-05T08:25:54.111Z,53.15
2024-01-05T08:27:56.416Z,53.95
2024-01-05T08:29:58.941Z,53.01
2024-01-05T08:32:04.324Z,52.62
2024-01-05T08:34:06.967Z,52.81
2024-01-05T08:36:09.470Z,52.48
2024-01-05T08:38:11.988Z,52.29
2024-01-05T08:40:14.420Z,51.99
2024-01-05T08:42:16.824Z,52.16
2024-01-05T08:44:22.335Z,52.44
2024-01-05T08:46:24.752Z,52.05
2024-01-05T08:48:27.538Z,51.45
2024-01-05T08:50:30.049Z,51.11
2024-01-05T08:52:32.324Z,52.14
2024-01-05T08:54:34.618Z,50.79
2024-01-05T08:56:38.455Z,50.84
2024-01-05T08:58:40.938Z,50.11
2024-01-05T09:00:43.366Z,50.63
2024-01-05T09:02:45.963Z,51.44
2024-01-05T09:04:48.426Z,50.42
2024-01-05T09:06:50.835Z,50.81
2024-01-05T09:08:53.189Z,50.07
2024-01-05T09:10:55.433Z,50.72
2024-01-05T09:12:57.716Z,49.72
2024-01-05T09:15:00.091Z,49.12
2024-01-05T09:17:02.389Z,49.14
2024-01-05T09:19:04.720Z,49.73
2024-01-05T09:21:10.125Z,50.10
2024-01-05T09:23:14.658Z,49.73
2024-01-05T09:25:17.037Z,49.88
2024-01-05T09:27:19.513Z,49.95
2024-01-05T09:29:21.702Z,49.75
2024-01-05T09:31:24.660Z,49.08
2024-01-05T09:33:27.260Z,48.71
2024-01-05T09:35:29.669Z,49.89
2024-01-05T09:37:31.939Z,48.65
2024-01-05T09:39:34.631Z,48.92
2024-01-05T09:41:39.230Z,49.30
2024-01-05T09:43:48.765Z,49.40
2024-01-05T09:45:52.438Z,49.98
2024-01-05T09:48:00.394Z,49.95
2024-01-05T09:50:06.520Z,49.04
2024-01-05T09:52:13.929Z,48.41
2024-01-05T09:54:16.755Z,47.82
2024-01-05T09:56:19.706Z,48.31
2024-01-05T09:58:22.691Z,48.65
2024-01-05T10:00:28.085Z,48.49
2024-01-05T10:02:37.763Z,48.07
2024-01-05T10:04:40.067Z,47.70
2024-01-05T10:06:42.615Z,48.27
2024-01-05T10:08:44.919Z,48.04
2024-01-05T10:11:00.150Z,47.76
2024-01-05T10:13:11.465Z,47.78
2024-01-05T10:15:14.318Z,48.69
2024-01-05T10:17:17.592Z,48.17
2024-01-05T10:19:21.447Z,48.58
2024-01-05T10:21:24.927Z,47.89
2024-01-05T10:23:27.396Z,46.93
2024-01-05T10:25:37.776Z,47.03
2024-01-05T10:27:40.206Z,47.69
2024-01-05T10:29:46.820Z,46.91
2024-01-05T10:31:49.170Z,47.17
2024-01-05T10:33:58.960Z,46.76
2024-01-05T10:36:07.934Z,46.65
2024-01-05T10:38:12.787Z,47.15
2024-01-05T10:40:18.455Z,46.96
2024-01-05T10:42:26.349Z,46.69
2024-01-05T10:44:29.098Z,46.36
2024-01-05T10:46:33.759Z,47.01
2024-01-05T10:48:37.194Z,46.99
2024-01-05T10:50:42.561Z,46.42
2024-01-05T10:52:46.066Z,46.57
2024-01-05T10:54:50.673Z,46.48
2024-01-05T10:56:57.176Z,46.13
2024-01-05T10:58:59.696Z,46.00
2024-01-05T11:01:03.146Z,45.36
2024-01-05T11:03:08.392Z,46.07
2024-01-05T11:05:14.205Z,45.93
2024-01-05T11:07:19.003Z,45.42
2024-01-05T11:09:49.717Z,44.93
2024-01-05T11:12:23.427Z,45.02
2024-01-05T11:14:48.824Z,44.98
2024-01-05T11:17:07.988Z,44.96
2024-01-05T11:19:10.971Z,45.77
2024-01-05T11:21:24.390Z,45.29
2024-01-05T11:23:27.935Z,45.44
2024-01-05T11:25:30.541Z,45.13
2024-01-05T11:27:35.500Z,45.17
2024-01-05T11:29:47.576Z,44.88
2024-01-05T11:31:50.383Z,44.58
2024-01-05T11:33:53.060Z,44.29
2024-01-05T11:35:55.620Z,45.86
2024-01-05T11:37:59.814Z,46.04
2024-01-05T11:40:02.308Z,45.63
2024-01-05T11:42:05.272Z,45.53
2024-01-05T11:44:36.930Z,45.63
2024-01-05T11:46:53.289Z,44.02
2024-01-05T11:48:55.817Z,45.62
2024-01-05T11:50:58.869Z,45.58
2024-01-05T11:53:14.094Z,45.85
2024-01-05T11:55:16.446Z,45.64
2024-01-05T11:57:18.720Z,45.26
2024-01-05T11:59:21.524Z,45.60
2024-01-05T12:01:24.287Z,45.19
2024-01-05T12:03:30.003Z,45.58
2024-01-05T12:05:35.652Z,45.14
2024-01-05T12:07:38.130Z,44.39
2024-01-05T12:09:40.421Z,44.26
2024-01-05T12:11:43.052Z,44.40
2024-01-05T12:13:45.438Z,44.92
2024-01-05T12:18:07.824Z,43.97
2024-01-05T12:20:13.967Z,44.55
2024-01-05T12:22:17.267Z,44.94
2024-01-05T12:24:19.749Z,43.37
2024-01-05T12:26:22.801Z,44.37
2024-01-05T12:28:25.342Z,43.93
2024-01-05T12:30:28.017Z,42.80
2024-01-05T12:32:34.642Z,43.47
2024-01-05T12:34:37.103Z,43.25
2024-01-05T12:36:39.492Z,43.64
2024-01-05T12:38:42.260Z,43.81
2024-01-05T12:40:44.631Z,43.67
2024-01-05T12:42:47.111Z,43.46
2024-01-05T12:44:49.582Z,42.97
2024-01-05T12:46:53.598Z,44.00
2024-01-05T12:48:57.370Z,43.01
2024-01-05T12:51:10.230Z,42.92
2024-01-05T12:53:22.334Z,42.97
2024-01-05T12:55:34.829Z,42.62
2024-01-05T12:57:38.388Z,43.08
2024-01-05T12:59:40.922Z,42.37
2024-01-05T13:01:43.256Z,42.75
2024-01-05T13:03:53.751Z,42.35
2024-01-05T13:06:08.045Z,42.75
2024-01-05T13:08:10.652Z,43.16
2024-01-05T13:10:13.176Z,42.89
2024-01-05T13:12:15.514Z,43.38
2024-01-05T13:14:17.795Z,43.06
2024-01-05T13:16:20.640Z,43.42
2024-01-05T13:18:23.045Z,42.62
2024-01-05T13:20:26.217Z,43.66
2024-01-05T13:22:28.522Z,43.40
2024-01-05T13:24:30.967Z,43.47
2024-01-05T13:26:33.555Z,43.93
2024-01-05T13:28:38.897Z,43.77
2024-01-05T13:30:41.728Z,43.67
2024-01-05T13:32:45.346Z,44.20
2024-01-05T13:34:47.802Z,44.36
2024-01-05T13:36:50.217Z,44.29
2024-01-05T13:38:52.500Z,44.23
2024-01-05T13:40:54.938Z,44.77
2024-01-05T13:42:57.620Z,44.83
2024-01-05T13:45:00.670Z,45.14
2024-01-05T13:47:02.917Z,45.15
2024-01-05T13:49:05.299Z,44.97
2024-01-05T13:51:07.719Z,45.24
2024-01-05T13:53:14.329Z,45.47
2024-01-05T13:55:16.875Z,45.50
2024-01-05T13:57:20.000Z,45.57
2024-01-05T13:59:22.540Z,45.57
2024-01-05T14:01:25.001Z,45.71
2024-01-05T14:03:29.772Z,46.09
2024-01-05T14:05:32.367Z,46.27
2024-01-05T14:07:34.729Z,46.10
2024-01-05T14:09:37.244Z,46.27
2024-01-05T14:11:39.518Z,46.74
2024-01-05T14:13:42.723Z,46.98
2024-01-05T14:15:45.066Z,47.25
2024-01-05T14:17:47.375Z,46.91
2024-01-05T14:19:50.034Z,47.52
2024-01-05T14:21:52.614Z,47.22
2024-01-05T14:23:55.139Z,47.65
2024-01-05T14:25:58.567Z,47.58
2024-01-05T14:28:00.947Z,47.50
2024-01-05T14:30:04.772Z,47.81
2024-01-05T14:32:07.441Z,47.75
2024-01-05T14:34:09.967Z,48.00
2024-01-05T14:36:12.441Z,48.12
2024-01-05T14:38:14.853Z,47.93
2024-01-05T14:40:17.986Z,48.01
2024-01-05T14:42:20.326Z,48.49
2024-01-05T14:44:22.683Z,48.48
2024-01-05T14:46:25.061Z,48.56
2024-01-05T14:48:29.725Z,48.65
2024-01-05T14:50:32.854Z,48.49
2024-01-05T14:52:36.085Z,48.45
2024-01-05T14:54:38.443Z,48.36
2024-01-05T14:56:40.910Z,48.78
2024-01-05T14:58:45.687Z,48.80
2024-01-05T15:00:49.676Z,48.70
2024-01-05T15:02:52.079Z,48.66
2024-01-05T15:04:54.500Z,48.67
2024-01-05T15:06:58.444Z,48.72
2024-01-05T15:09:00.971Z,48.87
2024-01-05T15:11:04.437Z,48.73
2024-01-05T15:13:06.677Z,49.08
2024-01-05T15:15:10.237Z,49.20
2024-01-05T15:17:12.743Z,49.59
2024-01-05T15:19:15.281Z,49.43
2024-01-05T15:21:27.669Z,49.66
2024-01-05T15:23:29.946Z,49.40
2024-01-05T15:25:32.311Z,49.82
2024-01-05T15:27:35.365Z,49.85
2024-01-05T15:29:40.595Z,49.90
2024-01-05T15:31:43.095Z,49.69
2024-01-05T15:33:45.822Z,49.80
2024-01-05T15:35:48.375Z,50.25
2024-01-05T15:37:51.795Z,50.68
2024-01-05T15:39:55.185Z,50.79
2024-01-05T15:41:57.880Z,50.44
2024-01-05T15:44:00.163Z,50.36
2024-01-05T15:46:02.503Z,50.55
2024-01-05T15:48:06.492Z,50.60
2024-01-05T15:50:10.844Z,50.34
2024-01-05T15:52:13.297Z,50.69
2024-01-05T15:54:15.762Z,51.28
2024-01-05T15:56:19.340Z,50.98
2024-01-05T15:58:21.599Z,51.27
2024-01-05T16:00:24.123Z,51.23
2024-01-05T16:02:26.860Z,50.94
2024-01-05T16:04:29.539Z,52.30
2024-01-05T16:06:32.081Z,51.63
2024-01-05T16:08:34.593Z,51.48
2024-01-05T16:10:36.794Z,50.94
2024-01-05T16:12:39.267Z,50.36
2024-01-05T16:14:48.944Z,50.18
2024-01-05T16:16:51.554Z,49.59
2024-01-05T16:18:57.130Z,49.52
2024-01-05T16:20:59.538Z,49.70
2024-01-05T16:23:01.963Z,49.19
2024-01-05T16:25:04.508Z,49.22
2024-01-05T16:27:07.012Z,49.18
2024-01-05T16:29:09.320Z,49.02
2024-01-05T16:31:12.235Z,48.87
2024-01-05T16:33:14.895Z,48.90
2024-01-05T16:35:17.533Z,49.18
2024-01-05T16:37:19.867Z,49.12
2024-01-05T16:39:23.056Z,49.24
2024-01-05T16:41:26.090Z,48.90
2024-01-05T16:43:28.732Z,49.03
2024-01-05T16:45:31.117Z,48.90
2024-01-05T16:47:33.437Z,49.04
2024-01-05T16:49:35.819Z,49.10
2024-01-05T16:51:38.335Z,49.14
2024-01-05T16:53:40.663Z,49.52
2024-01-05T16:55:43.124Z,49.88
2024-01-05T16:57:45.577Z,49.85
2024-01-05T16:59:47.885Z,49.88
2024-01-05T17:01:50.372Z,49.96
2024-01-05T17:03:55.205Z,49.42
2024-01-05T17:05:57.566Z,49.58
2024-01-05T17:07:59.850Z,49.76
2024-01-05T17:10:02.298Z,49.60
2024-01-05T17:12:06.397Z,49.21
2024-01-05T17:14:11.805Z,49.76
2024-01-05T17:16:14.117Z,49.58
2024-01-05T17:18:18.787Z,49.72
2024-01-05T17:20:25.231Z,49.87
2024-01-05T17:22:28.406Z,49.95
2024-01-05T17:24:30.915Z,50.23
2024-01-05T17:26:39.821Z,50.93
2024-01-05T17:28:42.245Z,50.98
2024-01-05T17:30:44.725Z,50.89
2024-01-05T17:32:48.861Z,51.15
2024-01-05T17:34:51.174Z,51.18
2024-01-05T17:36:53.840Z,51.01
2024-01-05T17:38:57.188Z,51.30
2024-01-05T17:40:59.434Z,51.05
2024-01-05T17:43:01.690Z,51.21
2024-01-05T17:45:04.509Z,51.38
2024-01-05T17:47:07.374Z,51.48
2024-01-05T17:49:10.302Z,51.52
2024-01-05T17:51:12.985Z,51.48
2024-01-05T17:53:15.325Z,51.66
2024-01-05T17:55:17.530Z,51.36
2024-01-05T17:57:21.502Z,51.71
2024-01-05T17:59:25.894Z,51.62
2024-01-05T18:01:28.341Z,51.61
2024-01-05T18:03:30.733Z,51.65
2024-01-05T18:05:33.143Z,52.25
2024-01-05T18:07:35.464Z,52.15
2024-01-05T18:09:37.806Z,51.97
2024-01-05T18:11:40.224Z,52.31
2024-01-05T18:13:42.438Z,53.10
2024-01-05T18:15:44.816Z,52.60
2024-01-05T18:17:47.285Z,52.80
2024-01-05T18:19:50.563Z,53.13
2024-01-05T18:21:53.173Z,52.67
2024-01-05T18:23:57.045Z,53.24
2024-01-05T18:25:59.450Z,53.27
2024-01-05T18:28:05.911Z,53.03
2024-01-05T18:30:09.250Z,53.20
2024-01-05T18:32:11.670Z,53.58
2024-01-05T18:34:14.202Z,53.28
2024-01-05T18:36:19.684Z,52.74
2024-01-05T18:38:22.087Z,53.32
2024-01-05T18:40:24.364Z,52.91
2024-01-05T18:42:26.707Z,52.88
2024-01-05T18:44:29.051Z,52.85
2024-01-05T18:46:31.434Z,53.23
2024-01-05T18:48:33.871Z,53.73
2024-01-05T18:50:39.177Z,54.46
2024-01-05T18:52:41.530Z,54.12
2024-01-05T18:54:43.972Z,53.83
2024-01-05T18:56:46.321Z,54.04
2024-01-05T18:58:48.800Z,54.26
2024-01-05T19:00:53.036Z,54.36
2024-01-05T19:02:58.183Z,54.15
2024-01-05T19:05:01.009Z,54.12
2024-01-05T19:07:04.260Z,54.20
2024-01-05T19:09:07.148Z,54.27
2024-01-05T19:11:09.750Z,54.01
2024-01-05T19:13:12.166Z,54.17
2024-01-05T19:15:14.502Z,54.21
2024-01-05T19:17:16.831Z,54.25
2024-01-05T19:19:20.759Z,53.85
2024-01-05T19:21:23.461Z,54.24
2024-01-05T19:23:26.167Z,54.55
2024-01-05T19:25:28.519Z,54.61
2024-01-05T19:27:31.404Z,54.01
2024-01-05T19:29:33.774Z,54.41
2024-01-05T19:31:41.911Z,54.76
2024-01-05T19:33:44.476Z,53.90
2024-01-05T19:35:48.758Z,53.64
2024-01-05T19:37:52.190Z,53.35
2024-01-05T19:39:55.051Z,53.52
2024-01-05T19:42:00.981Z,53.28
2024-01-05T19:44:03.310Z,53.66
2024-01-05T19:46:11.624Z,53.54
2024-01-05T19:48:14.434Z,53.76
2024-01-05T19:50:17.002Z,53.67
2024-01-05T19:52:19.592Z,53.92
2024-01-05T19:54:22.107Z,53.50
2024-01-05T19:56:24.306Z,53.86
2024-01-05T19:58:26.677Z,53.55
2024-01-05T20:00:29.229Z,53.63
2024-01-05T20:02:31.686Z,53.81
2024-01-05T20:04:35.094Z,53.65
2024-01-05T20:06:39.648Z,53.93
2024-01-05T20:08:42.032Z,53.66
2024-01-05T20:10:44.316Z,53.55
2024-01-05T20:12:47.626Z,53.47
2024-01-05T20:14:50.289Z,53.39
2024-01-05T20:16:52.527Z,53.70
2024-01-05T20:18:55.087Z,53.88
2024-01-05T20:20:57.496Z,54.29
2024-01-05T20:23:00.301Z,54.20
2024-01-05T20:25:02.644Z,54.15
2024-01-05T20:27:07.592Z,54.10
2024-01-05T20:29:12.779Z,53.81
2024-01-05T20:31:15.197Z,54.20
2024-01-05T20:33:17.746Z,53.92
2024-01-05T20:35:20.708Z,53.73
2024-01-05T20:37:26.049Z,54.45
2024-01-05T20:39:28.603Z,54.24
2024-01-05T20:41:31.409Z,53.88
2024-01-05T20:43:33.768Z,53.99
2024-01-05T20:45:36.107Z,53.91
2024-01-05T20:47:38.958Z,53.79
2024-01-05T20:49:41.323Z,54.27
2024-01-05T20:51:43.807Z,54.31
2024-01-05T20:53:46.408Z,54.13
2024-01-05T20:55:50.325Z,54.48
2024-01-05T20:57:52.592Z,54.40
2024-01-05T20:59:54.936Z,54.27
2024-01-05T21:01:57.429Z,54.10
2024-01-05T21:03:59.822Z,54.32
2024-01-05T21:06:02.948Z,54.15
2024-01-05T21:08:05.455Z,54.57
2024-01-05T21:10:08.736Z,54.54
2024-01-05T21:12:11.326Z,54.90
2024-01-05T21:14:14.229Z,54.64
2024-01-05T21:16:16.972Z,54.64
2024-01-05T21:18:19.783Z,54.40
2024-01-05T21:20:23.003Z,54.17
2024-01-05T21:22:27.972Z,54.24
2024-01-05T21:24:31.019Z,54.33
2024-01-05T21:26:35.215Z,54.48
2024-01-05T21:28:38.275Z,54.77
2024-01-05T21:30:42.423Z,54.82
2024-01-05T21:32:46.220Z,54.86
2024-01-05T21:34:49.946Z,54.45
2024-01-05T21:36:55.407Z,54.81
2024-01-05T21:38:58.527Z,54.95
2024-01-05T21:41:01.691Z,54.52
2024-01-05T21:43:04.772Z,54.47
2024-01-05T21:45:08.457Z,54.71
2024-01-05T21:47:11.619Z,54.48
2024-01-05T21:49:14.075Z,54.47
2024-01-05T21:51:17.106Z,54.51
2024-01-05T21:53:19.386Z,54.44
2024-01-05T21:55:21.653Z,54.25
2024-01-05T21:57:25.915Z,54.34
2024-01-05T21:59:30.490Z,53.88
2024-01-05T22:01:33.675Z,53.88
2024-01-05T22:03:36.435Z,53.67
2024-01-05T22:05:39.454Z,53.64
2024-01-05T22:07:44.574Z,53.36
2024-01-05T22:09:47.188Z,52.84
2024-01-05T22:11:49.567Z,52.72
2024-01-05T22:13:52.028Z,52.49
2024-01-05T22:15:55.699Z,52.64
2024-01-05T22:17:57.981Z,51.94
2024-01-05T22:20:00.605Z,52.44
2024-01-05T22:22:03.678Z,51.95
2024-01-05T22:24:06.413Z,52.00
2024-01-05T22:26:10.141Z,51.98
2024-01-05T22:28:12.492Z,52.34
2024-01-05T22:30:14.948Z,52.44
2024-01-05T22:32:17.247Z,52.97
2024-01-05T22:34:19.731Z,52.84
2024-01-05T22:36:22.296Z,53.36
2024-01-05T22:38:26.549Z,53.73
2024-01-05T22:40:30.293Z,54.39
2024-01-05T22:42:33.771Z,54.83
2024-01-05T22:44:43.057Z,54.57
2024-01-05T22:46:45.468Z,54.43
2024-01-05T22:48:47.972Z,54.23
2024-01-05T22:50:50.922Z,54.42
2024-01-05T22:52:53.431Z,54.52
2024-01-05T22:54:57.383Z,54.67
2024-01-05T22:56:59.917Z,55.04
2024-01-05T22:59:02.293Z,55.25
2024-01-05T23:01:04.697Z,55.77
2024-01-05T23:03:07.582Z,55.23
2024-01-05T23:05:11.296Z,55.38
2024-01-05T23:07:13.729Z,55.87
2024-01-05T23:09:16.040Z,55.59
2024-01-05T23:11:18.513Z,55.45
2024-01-05T23:13:20.927Z,55.57
2024-01-05T23:15:24.393Z,54.95
2024-01-05T23:17:27.269Z,55.28
2024-01-05T23:19:30.095Z,54.88
2024-01-05T23:21:32.342Z,54.97
2024-01-05T23:23:38.143Z,55.14
2024-01-05T23:25:40.544Z,55.39
2024-01-05T23:27:42.933Z,54.98
2024-01-05T23:29:45.333Z,55.32
2024-01-05T23:31:47.943Z,55.13
2024-01-05T23:34:04.260Z,55.34
2024-01-05T23:36:13.313Z,54.87
2024-01-05T23:38:15.653Z,55.14
2024-01-05T23:40:18.001Z,56.12
2024-01-05T23:42:20.484Z,55.64
2024-01-05T23:44:22.966Z,56.11
2024-01-05T23:46:25.143Z,55.75
2024-01-05T23:48:27.621Z,55.61
2024-01-05T23:50:30.144Z,55.38
2024-01-05T23:52:33.816Z,55.06
2024-01-05T23:54:36.269Z,55.01
2024-01-05T23:56:38.565Z,55.51
2024-01-05T23:58:40.753Z,55.53
